Time;durP1;ratioP1;P1;durP2;ratioP2;P2;SDS_P1;SDS_P2;PMS_P1;PMS_P2;Temp;Humidity;BMP_temperature;BMP_pressure;BME280_temperature;BME280_humidity;BME280_pressure;Samples;Min_cycle;Max_cycle;Signal;HPM_P1;HPM_P2
2023/04/14 00:01:32;;;;;;;;;;;;;;;-142.25;100.00;58004.16;4911608;29;20041;-61
2023/04/14 00:03:58;;;;;;;;;;;;;;;-142.25;100.00;58004.16;4912756;29;19933;-60
2023/04/14 00:06:26;;;;;;;;;;;;;;;-142.25;100.00;58004.16;4912307;29;20339;-61
2023/04/14 00:08:51;;;;;;;;;;;;;;;-142.25;100.00;58004.16;4911202;29;19931;-62
2023/04/14 00:11:17;;;;;;;;;;;;;;;-142.25;100.00;58004.16;4909638;29;19927;-61
2023/04/14 00:13:43;;;;;;;;;;;;;;;-142.25;100.00;58004.16;4911348;29;20002;-61
2023/04/14 00:16:10;;;;;;;;;;;;;;;-142.25;100.00;58004.16;4911837;29;20424;-61
2023/04/14 00:18:35;;;;;;;;;;;;;;;-142.25;100.00;58004.16;4912357;29;19923;-61
2023/04/14 00:21:02;;;;;;;;;;;;;;;-142.25;100.00;58004.16;4926452;29;20306;-61
2023/04/14 00:23:28;;;;;;;;;;;;;;;-142.25;100.00;58004.16;4912399;29;20370;-61
2023/04/14 00:25:54;;;;;;;;;;;;;;;-142.25;100.00;58004.16;4912266;29;19981;-61
2023/04/14 00:28:20;;;;;;;;;;;;;;;-142.25;100.00;58004.16;4912051;29;20328;-61
2023/04/14 00:30:49;;;;;;;;;;;;;;;-142.25;100.00;58004.16;4895686;29;20736;-62
2023/04/14 00:33:15;;;;;;;;;;;;;;;-142.25;100.00;58004.16;4911940;29;19982;-61
2023/04/14 00:35:40;;;;;;;;;;;;;;;-142.25;100.00;58004.16;4910057;29;20375;-61
2023/04/14 00:38:06;;;;;;;;;;;;;;;-142.25;100.00;58004.16;4911619;29;19927;-61
2023/04/14 00:40:31;;;;;;;;;;;;;;;-142.25;100.00;58004.16;4922636;29;20272;-61
2023/04/14 00:42:57;;;;;;;;;;;;;;;-142.25;100.00;58004.16;4914733;29;20018;-63
2023/04/14 00:45:24;;;;;;;;;;;;;;;-142.25;100.00;58004.16;4926386;29;20512;-61
2023/04/14 00:47:50;;;;;;;;;;;;;;;-142.25;100.00;58004.16;4912255;29;20026;-61
2023/04/14 00:50:16;;;;;;;;;;;;;;;-142.25;100.00;58004.16;4913203;29;19962;-61
2023/04/14 00:52:43;;;;;;;;;;;;;;;-142.25;100.00;58004.16;4911716;29;20017;-61
2023/04/14 00:55:09;;;;;;;;;;;;;;;-142.25;100.00;58004.16;4909956;29;20444;-61
2023/04/14 00:57:35;;;;;;;;;;;;;;;-142.25;100.00;58004.16;4911506;29;19922;-62
2023/04/14 01:00:03;;;;;;;;;;;;;;;-142.25;100.00;58004.16;4912097;29;19978;-61
2023/04/14 01:02:30;;;;;;;;;;;;;;;-142.25;100.00;58004.16;4912835;29;19926;-61
2023/04/14 01:04:59;;;;;;;;;;;;;;;-142.25;100.00;58004.16;4913877;29;20353;-61
2023/04/14 01:07:25;;;;;;;;;;;;;;;-142.25;100.00;58004.16;4913366;29;19922;-62
2023/04/14 01:09:57;;;;;;;;;;;;;;;-142.25;100.00;58004.16;4915754;29;20465;-61
2023/04/14 01:12:41;;;;;;;;;;;;;;;-142.25;100.00;58004.16;4915281;29;20294;-60
2023/04/14 01:15:07;;;;;;;;;;;;;;;-142.25;100.00;58004.16;4915338;29;19930;-61
2023/04/14 01:17:38;;;;;;;;;;;;;;;-142.25;100.00;58004.16;4912354;29;20286;-61
2023/04/14 01:20:19;;;;;;;;;;;;;;;-142.25;100.00;58004.16;4913109;29;19986;-62
2023/04/14 01:22:52;;;;;;;;;;;;;;;-142.25;100.00;58004.16;4913852;29;20302;-62
2023/04/14 01:25:21;;;;;;;;;;;;;;;-142.25;100.00;58004.16;4913312;29;19973;-62
2023/04/14 01:28:02;;;;;;;;;;;;;;;-142.25;100.00;58004.16;4914274;29;20306;-62
2023/04/14 01:30:30;;;;;;;;;;;;;;;-142.25;100.00;58004.16;4927746;29;19928;-62
2023/04/14 01:32:57;;;;;;;;;;;;;;;-142.25;100.00;58004.16;4915322;29;20024;-62
2023/04/14 01:35:30;;;;;;;;;;;;;;;-142.25;100.00;58004.16;4915204;29;19994;-62
2023/04/14 01:38:02;;;;;;;;;;;;;;;-142.25;100.00;58004.16;4914213;29;20014;-62
2023/04/14 01:40:30;;;;;;;;;;;;;;;-142.25;100.00;58004.16;4914219;29;20450;-62
2023/04/14 01:42:58;;;;;;;;;;;;;;;-142.25;100.00;58004.16;4912384;29;19922;-62
2023/04/14 01:45:25;;;;;;;;;;;;;;;-142.25;100.00;58004.16;4916030;29;20037;-62
2023/04/14 01:47:51;;;;;;;;;;;;;;;-142.25;100.00;58004.16;4910511;29;20094;-61
2023/04/14 01:50:17;;;;;;;;;;;;;;;-142.25;100.00;58004.16;4911298;29;19931;-62
2023/04/14 01:52:46;;;;;;;;;;;;;;;-142.25;100.00;58004.16;4911930;29;20197;-62
2023/04/14 01:55:14;;;;;;;;;;;;;;;-142.25;100.00;58004.16;4921747;29;19930;-61
2023/04/14 01:57:43;;;;;;;;;;;;;;;-142.25;100.00;58004.16;4913696;29;19923;-61
2023/04/14 02:00:09;;;;;;;;;;;;;;;-142.25;100.00;58004.16;4922479;29;19929;-61
2023/04/14 02:02:40;;;;;;;;;;;;;;;-142.25;100.00;58004.16;4914554;29;20196;-61
2023/04/14 02:05:07;;;;;;;;;;;;;;;-142.25;100.00;58004.16;4914147;29;19929;-62
2023/04/14 02:07:34;;;;;;;;;;;;;;;-142.25;100.00;58004.16;4910790;29;19986;-61
2023/04/14 02:10:02;;;;;;;;;;;;;;;-142.25;100.00;58004.16;4911996;29;20317;-61
2023/04/14 02:12:29;;;;;;;;;;;;;;;-142.25;100.00;58004.16;4916394;29;19938;-61
2023/04/14 02:14:54;;;;;;;;;;;;;;;-142.25;100.00;58004.16;4917004;29;19930;-62
2023/04/14 02:17:20;;;;;;;;;;;;;;;-142.25;100.00;58004.16;4910765;29;19926;-62
2023/04/14 02:19:46;;;;;;;;;;;;;;;-142.25;100.00;58004.16;4913045;29;19933;-62
2023/04/14 02:22:12;;;;;;;;;;;;;;;-142.25;100.00;58004.16;4928596;29;19927;-61
2023/04/14 02:24:37;;;;;;;;;;;;;;;-142.25;100.00;58004.16;4911530;29;19927;-62
2023/04/14 02:27:17;;;;;;;;;;;;;;;-142.25;100.00;58004.16;4913218;29;20232;-62
2023/04/14 02:29:47;;;;;;;;;;;;;;;-142.25;100.00;58004.16;4914175;29;19923;-62
2023/04/14 02:32:18;;;;;;;;;;;;;;;-142.25;100.00;58004.16;4913670;29;20017;-62
2023/04/14 02:34:49;;;;;;;;;;;;;;;-142.25;100.00;58004.16;4916037;29;19923;-62
2023/04/14 02:37:18;;;;;;;;;;;;;;;-142.25;100.00;58004.16;4921805;28;20382;-61
2023/04/14 02:39:49;;;;;;;;;;;;;;;-142.25;100.00;58004.16;4912715;29;20370;-61
2023/04/14 02:42:15;;;;;;;;;;;;;;;-142.25;100.00;58004.16;4912374;29;20273;-62
2023/04/14 02:44:48;;;;;;;;;;;;;;;-142.25;100.00;58004.16;4910158;29;19996;-62
2023/04/14 02:47:23;;;;;;;;;;;;;;;-142.25;100.00;58004.16;4915448;29;20284;-62
2023/04/14 02:49:50;;;;;;;;;;;;;;;-142.25;100.00;58004.16;4914397;29;20301;-61
2023/04/14 02:52:20;;;;;;;;;;;;;;;-142.25;100.00;58004.16;4912451;29;19930;-61
2023/04/14 02:54:47;;;;;;;;;;;;;;;-142.25;100.00;58004.16;4919526;29;19930;-61
2023/04/14 02:57:13;;;;;;;;;;;;;;;-142.25;100.00;58004.16;4930344;29;19950;-61
2023/04/14 02:59:42;;;;;;;;;;;;;;;-142.25;100.00;58004.16;4912029;29;20326;-61
2023/04/14 03:02:10;;;;;;;;;;;;;;;-142.25;100.00;58004.16;4911855;29;20348;-61
2023/04/14 03:04:40;;;;;;;;;;;;;;;-142.25;100.00;58004.16;4911611;29;20013;-60
2023/04/14 03:07:13;;;;;;;;;;;;;;;-142.25;100.00;58004.16;4912807;29;19954;-61
2023/04/14 03:09:40;;;;;;;;;;;;;;;-142.25;100.00;58004.16;4927151;29;20067;-61
2023/04/14 03:12:06;;;;;;;;;;;;;;;-142.25;100.00;58004.16;4911375;29;20362;-61
2023/04/14 03:14:36;;;;;;;;;;;;;;;-142.25;100.00;58004.16;4910627;29;20550;-60
2023/04/14 03:17:03;;;;;;;;;;;;;;;-142.25;100.00;58004.16;4910485;29;20310;-60
2023/04/14 03:19:30;;;;;;;;;;;;;;;-142.25;100.00;58004.16;4911499;29;19965;-61
2023/04/14 03:21:58;;;;;;;;;;;;;;;-142.25;100.00;58004.16;4919245;29;20006;-61
2023/04/14 03:24:29;;;;;;;;;;;;;;;-142.25;100.00;58004.16;4915191;29;19930;-61
2023/04/14 03:27:04;;;;;;;;;;;;;;;-142.25;100.00;58004.16;4913184;29;20395;-61
2023/04/14 03:29:42;;;;;;;;;;;;;;;-142.25;100.00;58004.16;4896382;29;19929;-61
2023/04/14 03:32:09;;;;;;;;;;;;;;;-142.25;100.00;58004.16;4913421;29;19922;-60
2023/04/14 03:34:39;;;;;;;;;;;;;;;-142.25;100.00;58004.16;4918899;29;19944;-61
2023/04/14 03:37:06;;;;;;;;;;;;;;;-142.25;100.00;58004.16;4929561;29;20446;-61
2023/04/14 03:39:35;;;;;;;;;;;;;;;-142.25;100.00;58004.16;4914013;29;19922;-61
2023/04/14 03:42:02;;;;;;;;;;;;;;;-142.25;100.00;58004.16;4922366;29;19931;-60
2023/04/14 03:44:31;;;;;;;;;;;;;;;-142.25;100.00;58004.16;4913281;29;20343;-60
2023/04/14 03:47:01;;;;;;;;;;;;;;;-142.25;100.00;58004.16;4914380;29;19923;-60
2023/04/14 03:49:28;;;;;;;;;;;;;;;-142.25;100.00;58004.16;4911875;29;20377;-60
2023/04/14 03:51:57;;;;;;;;;;;;;;;-142.25;100.00;58004.16;4912262;29;19927;-60
2023/04/14 03:54:24;;;;;;;;;;;;;;;-142.25;100.00;58004.16;4912240;29;20379;-61
2023/04/14 03:56:54;;;;;;;;;;;;;;;-142.25;100.00;58004.16;4910755;29;19931;-60
2023/04/14 03:59:23;;;;;;;;;;;;;;;-142.25;100.00;58004.16;4912482;29;19953;-60
2023/04/14 04:01:49;;;;;;;;;;;;;;;-142.25;100.00;58004.16;4911760;29;20026;-61
2023/04/14 04:04:16;;;;;;;;;;;;;;;-142.25;100.00;58004.16;4914330;29;19923;-60
2023/04/14 04:06:43;;;;;;;;;;;;;;;-142.25;100.00;58004.16;4914769;29;19950;-61
2023/04/14 04:09:11;;;;;;;;;;;;;;;-142.25;100.00;58004.16;4918919;29;20331;-61
2023/04/14 04:11:38;;;;;;;;;;;;;;;-142.25;100.00;58004.16;4925842;29;19930;-60
2023/04/14 04:14:05;;;;;;;;;;;;;;;-142.25;100.00;58004.16;4913420;29;20042;-60
2023/04/14 04:16:34;;;;;;;;;;;;;;;-142.25;100.00;58004.16;4911556;29;19923;-60
2023/04/14 04:19:02;;;;;;;;;;;;;;;-142.25;100.00;58004.16;4925429;29;20252;-60
2023/04/14 04:21:31;;;;;;;;;;;;;;;-142.25;100.00;58004.16;4910944;29;20508;-60
2023/04/14 04:23:59;;;;;;;;;;;;;;;-142.25;100.00;58004.16;4926012;29;19927;-60
2023/04/14 04:26:25;;;;;;;;;;;;;;;-142.25;100.00;58004.16;4908513;29;20038;-61
2023/04/14 04:28:51;;;;;;;;;;;;;;;-142.25;100.00;58004.16;4925392;29;19927;-61
2023/04/14 04:31:17;;;;;;;;;;;;;;;-142.25;100.00;58004.16;4913277;29;19983;-61
2023/04/14 04:33:45;;;;;;;;;;;;;;;-142.25;100.00;58004.16;4912628;29;19923;-60
2023/04/14 04:36:12;;;;;;;;;;;;;;;-142.25;100.00;58004.16;4927959;29;19923;-60
2023/04/14 04:38:41;;;;;;;;;;;;;;;-142.25;100.00;58004.16;4912219;29;20234;-61
2023/04/14 04:41:19;;;;;;;;;;;;;;;-142.25;100.00;58004.16;4929653;29;19923;-61
2023/04/14 04:43:44;;;;;;;;;;;;;;;-142.25;100.00;58004.16;4921942;29;19929;-60
2023/04/14 04:46:19;;;;;;;;;;;;;;;-142.25;100.00;58004.16;4914970;29;20449;-61
2023/04/14 04:48:54;;;;;;;;;;;;;;;-142.25;100.00;58004.16;4915226;29;20461;-62
2023/04/14 04:51:19;;;;;;;;;;;;;;;-142.25;100.00;58004.16;4921869;29;19934;-61
2023/04/14 04:53:45;;;;;;;;;;;;;;;-142.25;100.00;58004.16;4911994;29;19923;-61
2023/04/14 04:56:10;;;;;;;;;;;;;;;-142.25;100.00;58004.16;4914858;29;19929;-62
2023/04/14 04:58:36;;;;;;;;;;;;;;;-142.25;100.00;58004.16;4913863;29;20348;-61
2023/04/14 05:01:08;;;;;;;;;;;;;;;-142.25;100.00;58004.16;4915645;29;19934;-61
2023/04/14 05:03:35;;;;;;;;;;;;;;;-142.25;100.00;58004.16;4913578;29;19926;-63
2023/04/14 05:06:01;;;;;;;;;;;;;;;-142.25;100.00;58004.16;4914086;29;19923;-66
2023/04/14 05:08:27;;;;;;;;;;;;;;;-142.25;100.00;58004.16;4929551;29;20002;-66
2023/04/14 05:10:52;;;;;;;;;;;;;;;-142.25;100.00;58004.16;4926357;29;20021;-70
2023/04/14 05:13:18;;;;;;;;;;;;;;;-142.25;100.00;58004.16;4913044;29;19938;-63
2023/04/14 05:15:43;;;;;;;;;;;;;;;-142.25;100.00;58004.16;4911603;29;19923;-63
2023/04/14 05:18:09;;;;;;;;;;;;;;;-142.25;100.00;58004.16;4912628;29;19951;-63
2023/04/14 05:20:35;;;;;;;;;;;;;;;-142.25;100.00;58004.16;4911094;29;19934;-63
2023/04/14 05:23:02;;;;;;;;;;;;;;;-142.25;100.00;58004.16;4912218;29;19957;-63
2023/04/14 05:25:28;;;;;;;;;;;;;;;-142.25;100.00;58004.16;4910835;29;20234;-63
2023/04/14 05:27:53;;;;;;;;;;;;;;;-142.25;100.00;58004.16;4914384;29;20038;-62
2023/04/14 05:30:19;;;;;;;;;;;;;;;-142.25;100.00;58004.16;4912651;29;20429;-61
2023/04/14 05:32:44;;;;;;;;;;;;;;;-142.25;100.00;58004.16;4913913;29;19930;-73
2023/04/14 05:35:10;;;;;;;;;;;;;;;-142.25;100.00;58004.16;4913909;29;20513;-68
2023/04/14 05:37:35;;;;;;;;;;;;;;;-142.25;100.00;58004.16;4913716;29;20296;-68
2023/04/14 05:40:01;;;;;;;;;;;;;;;-142.25;100.00;58004.16;4911132;29;20793;-62
2023/04/14 05:42:26;;;;;;;;;;;;;;;-142.25;100.00;58004.16;4913422;29;20661;-62
2023/04/14 05:44:52;;;;;;;;;;;;;;;-142.25;100.00;58004.16;4910769;29;20009;-60
2023/04/14 05:47:18;;;;;;;;;;;;;;;-142.25;100.00;58004.16;4912788;29;20425;-61
2023/04/14 05:49:43;;;;;;;;;;;;;;;-142.25;100.00;58004.16;4913084;29;20441;-60
2023/04/14 05:52:08;;;;;;;;;;;;;;;-142.25;100.00;58004.16;4914019;29;20214;-61
2023/04/14 05:54:34;;;;;;;;;;;;;;;-142.25;100.00;58004.16;4912887;29;19959;-62
2023/04/14 05:56:59;;;;;;;;;;;;;;;-142.25;100.00;58004.16;4911361;29;19923;-60
2023/04/14 05:59:26;;;;;;;;;;;;;;;-142.25;100.00;58004.16;4911422;29;19927;-62
2023/04/14 06:01:51;;;;;;;;;;;;;;;-142.25;100.00;58004.16;4912266;29;20508;-62
2023/04/14 06:04:17;;;;;;;;;;;;;;;-142.25;100.00;58004.16;4913050;29;19970;-62
2023/04/14 06:06:42;;;;;;;;;;;;;;;-142.25;100.00;58004.16;4912610;29;19927;-61
2023/04/14 06:09:08;;;;;;;;;;;;;;;-142.25;100.00;58004.16;4912071;29;20351;-61
2023/04/14 06:11:33;;;;;;;;;;;;;;;-142.25;100.00;58004.16;4912982;29;19923;-61
2023/04/14 06:14:01;;;;;;;;;;;;;;;-142.25;100.00;58004.16;4914427;29;19927;-61
2023/04/14 06:16:26;;;;;;;;;;;;;;;-142.25;100.00;58004.16;4915701;29;19926;-60
2023/04/14 06:18:52;;;;;;;;;;;;;;;-142.25;100.00;58004.16;4915501;29;20464;-61
2023/04/14 06:21:18;;;;;;;;;;;;;;;-142.25;100.00;58004.16;4913324;29;19934;-61
2023/04/14 06:23:43;;;;;;;;;;;;;;;-142.25;100.00;58004.16;4914223;29;20408;-61
2023/04/14 06:26:08;;;;;;;;;;;;;;;-142.25;100.00;58004.16;4913052;29;19923;-61
2023/04/14 06:28:34;;;;;;;;;;;;;;;-142.25;100.00;58004.16;4911298;29;19933;-62
2023/04/14 06:31:00;;;;;;;;;;;;;;;-142.25;100.00;58004.16;4914310;29;19927;-60
2023/04/14 06:33:26;;;;;;;;;;;;;;;-142.25;100.00;58004.16;4910560;29;19953;-61
2023/04/14 06:35:51;;;;;;;;;;;;;;;-142.25;100.00;58004.16;4914131;29;19930;-61
2023/04/14 06:38:17;;;;;;;;;;;;;;;-142.25;100.00;58004.16;4913833;29;19929;-61
2023/04/14 06:40:43;;;;;;;;;;;;;;;-142.25;100.00;58004.16;4913560;29;20005;-61
2023/04/14 06:43:09;;;;;;;;;;;;;;;-142.25;100.00;58004.16;4911853;29;20115;-61
2023/04/14 06:45:35;;;;;;;;;;;;;;;-142.25;100.00;58004.16;4912176;29;20461;-61
2023/04/14 06:48:01;;;;;;;;;;;;;;;-142.25;100.00;58004.16;4912602;29;19933;-61
2023/04/14 06:50:26;;;;;;;;;;;;;;;-142.25;100.00;58004.16;4912191;29;20299;-61
2023/04/14 06:52:51;;;;;;;;;;;;;;;-142.25;100.00;58004.16;4911787;29;20332;-60
2023/04/14 06:55:17;;;;;;;;;;;;;;;-142.25;100.00;58004.16;4910273;29;20021;-61
2023/04/14 06:57:42;;;;;;;;;;;;;;;-142.25;100.00;58004.16;4912054;29;20232;-61
2023/04/14 07:00:09;;;;;;;;;;;;;;;-142.25;100.00;58004.16;4912838;29;19927;-62
2023/04/14 07:02:35;;;;;;;;;;;;;;;-142.25;100.00;58004.16;4911910;29;19937;-61
2023/04/14 07:05:01;;;;;;;;;;;;;;;-142.25;100.00;58004.16;4910988;29;19927;-61
2023/04/14 07:07:26;;;;;;;;;;;;;;;-142.25;100.00;58004.16;4911069;29;19927;-68
2023/04/14 07:09:52;;;;;;;;;;;;;;;-142.25;100.00;58004.16;4913297;29;19923;-67
2023/04/14 07:12:17;;;;;;;;;;;;;;;-142.25;100.00;58004.16;4910770;29;19926;-67
2023/04/14 07:14:49;;;;;;;;;;;;;;;-142.25;100.00;58004.16;4914184;29;19927;-68
2023/04/14 07:17:15;;;;;;;;;;;;;;;-142.25;100.00;58004.16;4912680;29;19973;-69
2023/04/14 07:19:40;;;;;;;;;;;;;;;-142.25;100.00;58004.16;4911942;29;20326;-64
2023/04/14 07:22:07;;;;;;;;;;;;;;;-142.25;100.00;58004.16;4912042;29;19933;-64
2023/04/14 07:24:33;;;;;;;;;;;;;;;-142.25;100.00;58004.16;4925280;29;20351;-63
2023/04/14 07:26:58;;;;;;;;;;;;;;;-142.25;100.00;58004.16;4911360;29;19931;-68
2023/04/14 07:29:26;;;;;;;;;;;;;;;-142.25;100.00;58004.16;4913588;29;19977;-67
2023/04/14 07:31:51;;;;;;;;;;;;;;;-142.25;100.00;58004.16;4913932;29;19950;-68
2023/04/14 07:34:17;;;;;;;;;;;;;;;-142.25;100.00;58004.16;4913635;29;19972;-66
2023/04/14 07:36:43;;;;;;;;;;;;;;;-142.25;100.00;58004.16;4911523;29;19948;-70
2023/04/14 07:39:09;;;;;;;;;;;;;;;-142.25;100.00;58004.16;4912485;29;19967;-69
2023/04/14 07:41:34;;;;;;;;;;;;;;;-142.25;100.00;58004.16;4912678;29;19948;-68
2023/04/14 07:44:00;;;;;;;;;;;;;;;-142.25;100.00;58004.16;4910132;29;20589;-67
2023/04/14 07:46:26;;;;;;;;;;;;;;;-142.25;100.00;58004.16;4910508;29;19976;-65
2023/04/14 07:48:51;;;;;;;;;;;;;;;-142.25;100.00;58004.16;4913578;29;20681;-64
2023/04/14 07:51:17;;;;;;;;;;;;;;;-142.25;100.00;58004.16;4917990;29;20029;-65
2023/04/14 07:53:43;;;;;;;;;;;;;;;-142.25;100.00;58004.16;4910468;29;20006;-67
2023/04/14 07:56:09;;;;;;;;;;;;;;;-142.25;100.00;58004.16;4912708;29;19963;-63
2023/04/14 07:58:35;;;;;;;;;;;;;;;-142.25;100.00;58004.16;4924320;29;20003;-64
2023/04/14 08:01:01;;;;;;;;;;;;;;;-142.25;100.00;58004.16;4924563;28;20006;-68
2023/04/14 08:03:26;;;;;;;;;;;;;;;-142.25;100.00;58004.16;4910047;29;20060;-65
2023/04/14 08:05:52;;;;;;;;;;;;;;;-142.25;100.00;58004.16;4903472;29;19965;-61
2023/04/14 08:08:17;;;;;;;;;;;;;;;-142.25;100.00;58004.16;4907692;29;19943;-64
2023/04/14 08:10:42;;;;;;;;;;;;;;;-142.25;100.00;58004.16;4912012;29;20259;-63
2023/04/14 08:13:08;;;;;;;;;;;;;;;-142.25;100.00;58004.16;4912316;29;19969;-66
2023/04/14 08:15:33;;;;;;;;;;;;;;;-142.25;100.00;58004.16;4910548;29;20016;-66
2023/04/14 08:17:59;;;;;;;;;;;;;;;-142.25;100.00;58004.16;4911126;29;19941;-63
2023/04/14 08:20:24;;;;;;;;;;;;;;;-142.25;100.00;58004.16;4911063;29;20545;-64
2023/04/14 08:22:50;;;;;;;;;;;;;;;-142.25;100.00;58004.16;4910337;29;19948;-67
2023/04/14 08:25:15;;;;;;;;;;;;;;;-142.25;100.00;58004.16;4911038;29;20547;-66
2023/04/14 08:27:41;;;;;;;;;;;;;;;-142.25;100.00;58004.16;4913158;29;19944;-66
2023/04/14 08:30:07;;;;;;;;;;;;;;;-142.25;100.00;58004.16;4910741;29;20377;-66
2023/04/14 08:32:32;;;;;;;;;;;;;;;-142.25;100.00;58004.16;4910579;29;19952;-66
2023/04/14 08:34:58;;;;;;;;;;;;;;;-142.25;100.00;58004.16;4910681;29;20096;-65
2023/04/14 08:37:23;;;;;;;;;;;;;;;-142.25;100.00;58004.16;4909514;29;20442;-63
2023/04/14 08:39:48;;;;;;;;;;;;;;;-142.25;100.00;58004.16;4910857;29;19962;-66
2023/04/14 08:42:14;;;;;;;;;;;;;;;-142.25;100.00;58004.16;4912219;29;20297;-62
2023/04/14 08:44:40;;;;;;;;;;;;;;;-142.25;100.00;58004.16;4911751;29;20363;-63
2023/04/14 08:47:06;;;;;;;;;;;;;;;-142.25;100.00;58004.16;4910297;29;19956;-63
2023/04/14 08:49:44;;;;;;;;;;;;;;;-142.25;100.00;58004.16;4911187;29;19949;-62
2023/04/14 08:52:13;;;;;;;;;;;;;;;-142.25;100.00;58004.16;4911544;29;19936;-63
2023/04/14 08:54:38;;;;;;;;;;;;;;;-142.25;100.00;58004.16;4910304;29;19950;-67
2023/04/14 08:57:07;;;;;;;;;;;;;;;-142.25;100.00;58004.16;4910568;29;20577;-70
2023/04/14 08:59:32;;;;;;;;;;;;;;;-142.25;100.00;58004.16;4911909;29;19986;-66
2023/04/14 09:01:58;;;;;;;;;;;;;;;-142.25;100.00;58004.16;4912401;29;19941;-67
2023/04/14 09:04:24;;;;;;;;;;;;;;;-142.25;100.00;58004.16;4910947;29;19939;-67
2023/04/14 09:06:50;;;;;;;;;;;;;;;-142.25;100.00;58004.16;4909461;29;19940;-66
2023/04/14 09:09:16;;;;;;;;;;;;;;;-142.25;100.00;58004.16;4911758;29;20484;-64
2023/04/14 09:11:42;;;;;;;;;;;;;;;-142.25;100.00;58004.16;4915622;29;20147;-73
2023/04/14 09:14:08;;;;;;;;;;;;;;;-142.25;100.00;58004.16;4912885;29;20050;-70
2023/04/14 09:16:34;;;;;;;;;;;;;;;-142.25;100.00;58004.16;4911506;29;19968;-67
2023/04/14 09:18:59;;;;;;;;;;;;;;;-142.25;100.00;58004.16;4913649;29;20749;-60
2023/04/14 09:21:26;;;;;;;;;;;;;;;-142.25;100.00;58004.16;4915493;29;19954;-71
2023/04/14 09:23:51;;;;;;;;;;;;;;;-142.25;100.00;58004.16;4915613;29;20030;-71
2023/04/14 09:26:17;;;;;;;;;;;;;;;-142.25;100.00;58004.16;4914091;29;19953;-69
2023/04/14 09:28:43;;;;;;;;;;;;;;;-142.25;100.00;58004.16;4915497;29;20390;-70
2023/04/14 09:31:09;;;;;;;;;;;;;;;-142.25;100.00;58004.16;4912897;29;20035;-60
2023/04/14 09:33:38;;;;;;;;;;;;;;;-142.25;100.00;58004.16;4914922;29;20080;-72
2023/04/14 09:36:04;;;;;;;;;;;;;;;-142.25;100.00;58004.16;4913554;29;19955;-74
2023/04/14 09:38:32;;;;;;;;;;;;;;;-142.25;100.00;58004.16;4913891;29;19952;-69
2023/04/14 09:40:58;;;;;;;;;;;;;;;-142.25;100.00;58004.16;4913750;29;20320;-70
2023/04/14 09:43:28;;;;;;;;;;;;;;;-142.25;100.00;58004.16;4913668;29;20049;-71
2023/04/14 09:45:54;;;;;;;;;;;;;;;-142.25;100.00;58004.16;4914524;29;19942;-70
2023/04/14 09:48:20;;;;;;;;;;;;;;;-142.25;100.00;58004.16;4917620;29;19945;-72
2023/04/14 09:50:54;;;;;;;;;;;;;;;-142.25;100.00;58004.16;4914099;29;20409;-72
2023/04/14 09:53:27;;;;;;;;;;;;;;;-142.25;100.00;58004.16;4913744;29;19943;-68
2023/04/14 09:55:52;;;;;;;;;;;;;;;-142.25;100.00;58004.16;4914096;29;19931;-62
2023/04/14 09:58:21;;;;;;;;;;;;;;;-142.25;100.00;58004.16;4914054;29;20573;-65
2023/04/14 10:00:46;;;;;;;;;;;;;;;-142.25;100.00;58004.16;4913535;29;19951;-66
2023/04/14 10:03:11;;;;;;;;;;;;;;;-142.25;100.00;58004.16;4913910;29;19954;-67
2023/04/14 10:05:37;;;;;;;;;;;;;;;-142.25;100.00;58004.16;4911493;29;19946;-66
2023/04/14 10:08:04;;;;;;;;;;;;;;;-142.25;100.00;58004.16;4912698;29;20444;-65
2023/04/14 10:10:30;;;;;;;;;;;;;;;-142.25;100.00;58004.16;4913570;29;19996;-64
2023/04/14 10:12:55;;;;;;;;;;;;;;;-142.25;100.00;58004.16;4913409;29;19945;-64
2023/04/14 10:15:21;;;;;;;;;;;;;;;-142.25;100.00;58004.16;4912806;29;19943;-61
2023/04/14 10:17:46;;;;;;;;;;;;;;;-142.25;100.00;58004.16;4913288;29;19948;-65
2023/04/14 10:20:12;;;;;;;;;;;;;;;-142.25;100.00;58004.16;4905315;29;20498;-65
2023/04/14 10:22:39;;;;;;;;;;;;;;;-142.25;100.00;58004.16;4908610;29;20112;-62
2023/04/14 10:25:05;;;;;;;;;;;;;;;-142.25;100.00;58004.16;4911087;29;20354;-63
2023/04/14 10:27:32;;;;;;;;;;;;;;;-142.25;100.00;58004.16;4912603;29;19942;-63
2023/04/14 10:29:58;;;;;;;;;;;;;;;-142.25;100.00;58004.16;4911477;28;20345;-63
2023/04/14 10:32:25;;;;;;;;;;;;;;;-142.25;100.00;58004.16;4912468;29;19943;-63
2023/04/14 10:34:59;;;;;;;;;;;;;;;-142.25;100.00;58004.16;4912246;29;20468;-63
2023/04/14 10:37:25;;;;;;;;;;;;;;;-142.25;100.00;58004.16;4911230;29;20404;-63
2023/04/14 10:39:57;;;;;;;;;;;;;;;-142.25;100.00;58004.16;4910302;29;19960;-68
2023/04/14 10:42:23;;;;;;;;;;;;;;;-142.25;100.00;58004.16;4912808;29;19940;-69
2023/04/14 10:45:02;;;;;;;;;;;;;;;-142.25;100.00;58004.16;4910574;29;19952;-67
2023/04/14 10:47:28;;;;;;;;;;;;;;;-142.25;100.00;58004.16;4912056;29;19940;-70
2023/04/14 10:49:55;;;;;;;;;;;;;;;-142.25;100.00;58004.16;4911451;29;19948;-70
2023/04/14 10:52:21;;;;;;;;;;;;;;;-142.25;100.00;58004.16;4910728;29;20045;-68
2023/04/14 10:55:07;;;;;;;;;;;;;;;-142.25;100.00;58004.16;4911796;29;19961;-68
2023/04/14 10:57:37;;;;;;;;;;;;;;;-142.25;100.00;58004.16;4910814;29;20068;-67
2023/04/14 11:00:20;;;;;;;;;;;;;;;-142.25;100.00;58004.16;4912304;29;19963;-67
2023/04/14 11:03:15;;;;;;;;;;;;;;;-142.25;100.00;58004.16;4913479;29;19943;-67
2023/04/14 11:05:44;;;;;;;;;;;;;;;-142.25;100.00;58004.16;4911957;29;20018;-65
2023/04/14 11:08:18;;;;;;;;;;;;;;;-142.25;100.00;58004.16;4911208;29;20087;-67
2023/04/14 11:10:50;;;;;;;;;;;;;;;-142.25;100.00;58004.16;4912093;29;19938;-66
2023/04/14 11:13:15;;;;;;;;;;;;;;;-142.25;100.00;58004.16;4914163;29;19950;-66
2023/04/14 11:15:47;;;;;;;;;;;;;;;-142.25;100.00;58004.16;4913200;29;20027;-69
2023/04/14 11:18:31;;;;;;;;;;;;;;;-142.25;100.00;58004.16;4911587;29;19943;-67
2023/04/14 11:21:04;;;;;;;;;;;;;;;-142.25;100.00;58004.16;4911869;29;20329;-67
2023/04/14 11:23:29;;;;;;;;;;;;;;;-142.25;100.00;58004.16;4910924;29;19940;-65
2023/04/14 11:25:56;;;;;;;;;;;;;;;-142.25;100.00;58004.16;4911663;29;20000;-65
2023/04/14 11:28:28;;;;;;;;;;;;;;;-142.25;100.00;58004.16;4928350;29;19972;-64
2023/04/14 11:30:56;;;;;;;;;;;;;;;-142.25;100.00;58004.16;4910687;29;20709;-71
2023/04/14 11:33:21;;;;;;;;;;;;;;;-142.25;100.00;58004.16;4911389;29;19947;-64
2023/04/14 11:35:47;;;;;;;;;;;;;;;-142.25;100.00;58004.16;4913677;29;20099;-61
2023/04/14 11:38:13;;;;;;;;;;;;;;;-142.25;100.00;58004.16;4912439;29;20017;-62
2023/04/14 11:40:39;;;;;;;;;;;;;;;-142.25;100.00;58004.16;4912213;29;20567;-61
2023/04/14 11:43:05;;;;;;;;;;;;;;;-142.25;100.00;58004.16;4911019;29;19998;-61
2023/04/14 11:45:31;;;;;;;;;;;;;;;-142.25;100.00;58004.16;4912410;29;19939;-62
2023/04/14 11:48:01;;;;;;;;;;;;;;;-142.25;100.00;58004.16;4912518;29;19949;-61
2023/04/14 11:50:28;;;;;;;;;;;;;;;-142.25;100.00;58004.16;4911158;29;20316;-62
2023/04/14 11:52:58;;;;;;;;;;;;;;;-142.25;100.00;58004.16;4911922;29;19946;-60
2023/04/14 11:55:24;;;;;;;;;;;;;;;-142.25;100.00;58004.16;4911667;29;20520;-60
2023/04/14 11:57:49;;;;;;;;;;;;;;;-142.25;100.00;58004.16;4911030;29;19961;-63
2023/04/14 12:00:16;;;;;;;;;;;;;;;-142.25;100.00;58004.16;4924537;29;20004;-66
2023/04/14 12:02:43;;;;;;;;;;;;;;;-142.25;100.00;58004.16;4909347;29;19944;-61
2023/04/14 12:05:09;;;;;;;;;;;;;;;-142.25;100.00;58004.16;4911461;29;20389;-62
2023/04/14 12:07:34;;;;;;;;;;;;;;;-142.25;100.00;58004.16;4907833;29;19948;-62
2023/04/14 12:10:03;;;;;;;;;;;;;;;-142.25;100.00;58004.16;4911142;29;20011;-62
2023/04/14 12:12:30;;;;;;;;;;;;;;;-142.25;100.00;58004.16;4911184;29;20046;-62
2023/04/14 12:14:56;;;;;;;;;;;;;;;-142.25;100.00;58004.16;4925373;29;20036;-61
2023/04/14 12:17:21;;;;;;;;;;;;;;;-142.25;100.00;58004.16;4911286;29;20023;-61
2023/04/14 12:19:47;;;;;;;;;;;;;;;-142.25;100.00;58004.16;4911235;29;19971;-60